Time;durP1;ratioP1;P1;durP2;ratioP2;P2;SDS_P1;SDS_P2;PMS_P1;PMS_P2;Temp;Humidity;BMP_temperature;BMP_pressure;BME280_temperature;BME280_humidity;BME280_pressure;Samples;Min_cycle;Max_cycle;Signal;HPM_P1;HPM_P2
2021/05/11 00:01:40;;;;;;;7.93;3.33;;;15.00;79.60;;;;;;5030639;28;20490;-68
2021/05/11 00:04:07;;;;;;;6.28;2.83;;;15.00;79.80;;;;;;5030672;28;20120;-69
2021/05/11 00:06:32;;;;;;;8.40;3.45;;;14.90;80.00;;;;;;5031631;28;20043;-68
2021/05/11 00:08:58;;;;;;;8.90;3.00;;;14.80;80.10;;;;;;5031872;28;20039;-68
2021/05/11 00:11:24;;;;;;;12.52;2.97;;;14.80;80.50;;;;;;5031462;28;20044;-69
2021/05/11 00:13:49;;;;;;;7.90;3.00;;;14.80;80.70;;;;;;5030936;28;20037;-69
2021/05/11 00:16:15;;;;;;;12.35;3.33;;;14.70;80.90;;;;;;5031180;28;20037;-69
2021/05/11 00:18:40;;;;;;;9.60;3.22;;;14.70;81.20;;;;;;5031654;28;20041;-68
2021/05/11 00:21:06;;;;;;;6.68;3.28;;;14.70;81.30;;;;;;5031220;28;20072;-68
2021/05/11 00:23:32;;;;;;;8.48;3.05;;;14.70;81.40;;;;;;5030217;28;20068;-68
2021/05/11 00:25:58;;;;;;;6.07;2.88;;;14.70;81.60;;;;;;5031392;28;20048;-68
2021/05/11 00:28:24;;;;;;;8.27;2.90;;;14.70;81.70;;;;;;5030184;28;20041;-69
2021/05/11 00:30:50;;;;;;;8.52;3.22;;;14.70;81.80;;;;;;5031278;28;20029;-69
2021/05/11 00:33:16;;;;;;;8.25;3.00;;;14.60;81.60;;;;;;5030651;28;20033;-68
2021/05/11 00:35:42;;;;;;;8.27;3.22;;;14.60;81.80;;;;;;5030679;28;20038;-68
2021/05/11 00:38:08;;;;;;;6.95;2.92;;;14.60;82.10;;;;;;5031257;28;20521;-69
2021/05/11 00:40:33;;;;;;;10.55;3.00;;;14.60;82.40;;;;;;5031208;28;20091;-68
2021/05/11 00:42:59;;;;;;;8.27;3.10;;;14.50;82.40;;;;;;5030169;28;20402;-69
2021/05/11 00:45:25;;;;;;;9.75;3.33;;;14.50;82.40;;;;;;5029583;28;20502;-68
2021/05/11 00:47:50;;;;;;;7.38;2.97;;;14.50;82.40;;;;;;5030840;28;20044;-68
2021/05/11 00:50:16;;;;;;;8.15;3.30;;;14.50;82.60;;;;;;5013332;28;20037;-69
2021/05/11 00:52:42;;;;;;;7.15;3.22;;;14.50;82.90;;;;;;5031227;28;20559;-68
2021/05/11 00:55:10;;;;;;;9.85;3.22;;;14.40;83.00;;;;;;5030049;28;20065;-68
2021/05/11 00:57:36;;;;;;;7.55;3.10;;;14.40;83.20;;;;;;5029677;28;20048;-68
2021/05/11 01:00:05;;;;;;;8.32;3.20;;;14.40;83.30;;;;;;5030762;28;20099;-68
2021/05/11 01:02:31;;;;;;;7.70;3.40;;;14.40;83.00;;;;;;5029637;28;20067;-69
2021/05/11 01:04:57;;;;;;;8.95;3.63;;;14.40;83.10;;;;;;5030129;28;20065;-67
2021/05/11 01:07:22;;;;;;;8.93;3.22;;;14.40;83.60;;;;;;5030563;28;20498;-67
2021/05/11 01:09:48;;;;;;;7.18;3.20;;;14.30;83.80;;;;;;5031017;28;20036;-67
2021/05/11 01:12:14;;;;;;;8.50;3.30;;;14.40;84.00;;;;;;5030988;28;20049;-68
2021/05/11 01:14:39;;;;;;;11.18;3.85;;;14.40;84.00;;;;;;5030049;28;20037;-67
2021/05/11 01:17:05;;;;;;;6.90;3.10;;;14.40;84.10;;;;;;5030767;28;20057;-67
2021/05/11 01:19:53;;;;;;;7.65;3.70;;;14.40;84.20;;;;;;5030509;28;20478;-67
2021/05/11 01:25:28;;;;;;;7.55;3.50;;;14.30;84.00;;;;;;4969026;28;20547;-68
2021/05/11 01:28:06;;;;;;;8.95;3.33;;;14.30;84.20;;;;;;4954349;28;20039;-67
2021/05/11 01:43:54;;;;;;;8.00;3.65;;;14.30;84.50;;;;;;5030181;28;20033;-66
2021/05/11 02:10:04;;;;;;;10.02;5.80;;;14.20;85.60;;;;;;5034412;28;20504;-67
2021/05/11 02:24:38;;;;;;;10.77;3.85;;;13.90;85.70;;;;;;5032817;28;20029;-67
2021/05/11 02:27:04;;;;;;;7.55;3.42;;;13.80;85.60;;;;;;5033746;28;20394;-66
2021/05/11 02:29:30;;;;;;;7.95;3.28;;;13.80;85.50;;;;;;5033249;28;20425;-67
2021/05/11 02:31:56;;;;;;;8.80;3.20;;;13.70;85.70;;;;;;5033642;28;20038;-68
2021/05/11 02:34:22;;;;;;;7.70;3.03;;;13.70;85.70;;;;;;5031417;28;20038;-68
2021/05/11 02:36:47;;;;;;;8.73;2.67;;;13.60;85.80;;;;;;5032962;28;20421;-68
2021/05/11 02:39:13;;;;;;;11.57;3.00;;;13.60;85.70;;;;;;5032110;28;20525;-67
2021/05/11 02:41:41;;;;;;;9.98;3.00;;;13.50;86.00;;;;;;5033236;28;20041;-67
2021/05/11 02:44:07;;;;;;;7.15;2.58;;;13.50;86.20;;;;;;5032698;28;20040;-68
2021/05/11 02:46:33;;;;;;;7.28;2.80;;;13.50;86.20;;;;;;5032035;28;20112;-68
2021/05/11 02:48:59;;;;;;;6.90;2.72;;;13.40;86.40;;;;;;5031545;28;20041;-67
2021/05/11 02:51:25;;;;;;;7.40;2.60;;;13.50;86.60;;;;;;5033603;28;20064;-67
2021/05/11 02:53:50;;;;;;;6.97;2.50;;;13.50;86.50;;;;;;5031043;28;20061;-66
2021/05/11 02:56:16;;;;;;;7.63;2.55;;;13.50;86.30;;;;;;5033263;28;20091;-67
2021/05/11 02:58:43;;;;;;;7.55;2.67;;;13.40;86.20;;;;;;5033206;28;20041;-68
2021/05/11 03:01:08;;;;;;;8.73;2.90;;;13.40;86.40;;;;;;5032905;28;20021;-67
2021/05/11 03:03:34;;;;;;;6.70;2.65;;;13.40;86.60;;;;;;5030999;28;20039;-68
2021/05/11 03:06:00;;;;;;;6.60;2.65;;;13.30;86.70;;;;;;5033323;28;20048;-68
2021/05/11 03:08:25;;;;;;;7.22;2.50;;;13.40;86.80;;;;;;5032639;28;20029;-68
2021/05/11 03:10:51;;;;;;;7.57;2.42;;;13.30;86.60;;;;;;5031754;28;20599;-68
2021/05/11 03:13:17;;;;;;;5.97;2.63;;;13.30;86.90;;;;;;5031792;28;20075;-67
2021/05/11 03:15:42;;;;;;;7.22;2.72;;;13.40;87.00;;;;;;5032851;28;20482;-68
2021/05/11 03:18:08;;;;;;;7.50;2.80;;;13.40;86.80;;;;;;5031347;28;20171;-68
2021/05/11 03:20:34;;;;;;;6.40;2.80;;;13.30;86.70;;;;;;5032254;28;20494;-68
2021/05/11 03:23:01;;;;;;;6.90;2.70;;;13.30;86.80;;;;;;5032010;28;20037;-68
2021/05/11 03:25:27;;;;;;;8.57;3.00;;;13.30;86.90;;;;;;5032300;28;20405;-68
2021/05/11 03:27:52;;;;;;;7.18;2.80;;;13.20;86.90;;;;;;5030858;28;20051;-68
2021/05/11 03:30:18;;;;;;;6.93;3.08;;;13.20;86.80;;;;;;5032353;28;20437;-68
2021/05/11 03:32:44;;;;;;;7.65;3.05;;;13.20;87.20;;;;;;5031365;28;20038;-68
2021/05/11 03:35:10;;;;;;;7.50;2.63;;;13.10;87.30;;;;;;5031770;28;20053;-68
2021/05/11 03:37:36;;;;;;;6.15;2.85;;;13.10;87.70;;;;;;5032303;28;20068;-68
2021/05/11 03:40:02;;;;;;;9.02;2.13;;;13.20;87.70;;;;;;5031985;28;20441;-68
2021/05/11 03:42:37;;;;;;;10.10;1.98;;;13.20;87.50;;;;;;5032319;28;20037;-68
2021/05/11 03:45:05;;;;;;;7.43;1.77;;;13.10;87.10;;;;;;5031155;28;20091;-67
2021/05/11 03:47:38;;;;;;;7.30;1.30;;;13.10;87.10;;;;;;5032167;28;20571;-68
2021/05/11 03:50:04;;;;;;;6.35;1.75;;;13.00;86.70;;;;;;5030874;28;20044;-68
2021/05/11 03:52:30;;;;;;;8.35;1.65;;;12.90;86.80;;;;;;5031932;28;20033;-68
2021/05/11 03:54:56;;;;;;;10.63;1.73;;;12.80;87.10;;;;;;5031363;28;20041;-67
2021/05/11 03:57:21;;;;;;;10.10;1.90;;;12.80;87.20;;;;;;5030845;28;20042;-69
2021/05/11 03:59:47;;;;;;;6.38;1.67;;;12.70;87.40;;;;;;5031985;28;20039;-68
2021/05/11 04:02:12;;;;;;;8.05;1.70;;;12.70;87.50;;;;;;5030572;28;20029;-67
2021/05/11 04:04:38;;;;;;;7.47;1.75;;;12.70;87.80;;;;;;5030824;28;20037;-67
2021/05/11 04:07:06;;;;;;;9.27;1.90;;;12.70;88.00;;;;;;5031400;28;20026;-67
2021/05/11 04:09:41;;;;;;;5.63;1.50;;;12.70;87.90;;;;;;5031480;28;20113;-67
2021/05/11 04:17:35;;;;;;;7.53;1.83;;;12.90;88.00;;;;;;5030871;28;20093;-67
2021/05/11 04:20:00;;;;;;;6.90;1.95;;;12.90;88.00;;;;;;5030410;28;20076;-67
2021/05/11 04:22:26;;;;;;;6.22;1.70;;;12.90;88.10;;;;;;5031425;28;20037;-67
2021/05/11 04:24:54;;;;;;;6.00;2.00;;;12.90;88.00;;;;;;5030533;28;20034;-67
2021/05/11 04:27:19;;;;;;;7.25;1.90;;;12.90;87.90;;;;;;5031393;28;20518;-68
2021/05/11 04:29:48;;;;;;;9.45;2.25;;;12.90;87.80;;;;;;5030936;28;20098;-68
2021/05/11 04:32:13;;;;;;;8.43;2.30;;;12.90;87.80;;;;;;5030042;28;20045;-67
2021/05/11 04:34:39;;;;;;;6.82;2.03;;;13.00;87.70;;;;;;5030660;28;20053;-68
2021/05/11 04:37:05;;;;;;;7.72;1.92;;;12.90;87.90;;;;;;5030810;28;20041;-67
2021/05/11 04:39:30;;;;;;;8.65;1.80;;;12.90;87.80;;;;;;5031459;28;20038;-67
2021/05/11 04:41:56;;;;;;;6.82;2.30;;;12.90;88.00;;;;;;5030698;28;20488;-68
2021/05/11 04:44:25;;;;;;;5.93;2.00;;;12.90;88.00;;;;;;5021986;28;20710;-67
2021/05/11 04:46:57;;;;;;;8.57;2.00;;;12.90;88.10;;;;;;5030107;28;20037;-67
2021/05/11 04:49:24;;;;;;;6.72;2.08;;;12.90;88.20;;;;;;5030422;28;20107;-67
2021/05/11 04:51:50;;;;;;;8.00;2.00;;;13.00;88.10;;;;;;5030778;28;20513;-67
2021/05/11 04:54:15;;;;;;;8.50;2.20;;;12.90;88.20;;;;;;5030408;28;20057;-66
2021/05/11 04:56:41;;;;;;;7.25;2.20;;;13.00;88.20;;;;;;5030162;28;20041;-66
2021/05/11 04:59:06;;;;;;;7.82;2.25;;;13.00;88.30;;;;;;5030749;28;20029;-67
2021/05/11 05:01:32;;;;;;;7.65;2.03;;;13.00;88.10;;;;;;5030774;28;20433;-67
2021/05/11 05:03:59;;;;;;;5.78;2.17;;;13.00;88.00;;;;;;5030137;28;20033;-67
2021/05/11 05:06:25;;;;;;;7.60;2.10;;;13.00;88.00;;;;;;5031053;28;20133;-67
2021/05/11 05:08:51;;;;;;;7.95;2.40;;;13.00;88.20;;;;;;5032123;28;20061;-67
2021/05/11 05:11:17;;;;;;;7.30;2.10;;;13.00;88.30;;;;;;5035346;28;20724;-67
2021/05/11 05:13:44;;;;;;;6.90;2.50;;;13.00;88.10;;;;;;5034108;28;20132;-66
2021/05/11 05:16:10;;;;;;;8.48;2.38;;;13.00;88.40;;;;;;5035119;28;20041;-68
2021/05/11 05:18:36;;;;;;;8.55;2.33;;;13.00;88.40;;;;;;5017209;28;20052;-67
2021/05/11 05:21:05;;;;;;;8.00;2.22;;;13.00;88.50;;;;;;5034651;28;20507;-68
2021/05/11 05:23:38;;;;;;;8.03;2.70;;;13.00;88.50;;;;;;5034307;28;20054;-67
2021/05/11 05:26:07;;;;;;;9.30;3.38;;;13.00;88.50;;;;;;5034290;28;20068;-67
2021/05/11 05:28:39;;;;;;;9.32;3.47;;;13.00;88.60;;;;;;5034873;28;20408;-67
2021/05/11 05:31:05;;;;;;;11.27;5.80;;;13.00;88.60;;;;;;5034350;28;20517;-67
2021/05/11 05:33:33;;;;;;;12.18;5.63;;;13.00;88.60;;;;;;5034077;28;20037;-67
2021/05/11 05:35:59;;;;;;;12.38;6.68;;;13.00;88.60;;;;;;5034887;28;20108;-67
2021/05/11 05:38:27;;;;;;;13.63;6.72;;;13.00;88.60;;;;;;5034319;28;20045;-67
2021/05/11 05:40:59;;;;;;;13.88;7.13;;;13.10;88.70;;;;;;5034696;28;20116;-67
2021/05/11 05:43:24;;;;;;;10.80;5.72;;;13.10;88.70;;;;;;5033564;28;20119;-67
2021/05/11 05:45:52;;;;;;;9.02;3.70;;;13.10;88.80;;;;;;5034563;28;20065;-67
2021/05/11 05:48:18;;;;;;;7.25;2.83;;;13.10;88.70;;;;;;5034491;28;20059;-67
2021/05/11 05:50:44;;;;;;;7.40;2.78;;;13.10;88.70;;;;;;5034273;28;20380;-68
2021/05/11 05:53:21;;;;;;;8.50;3.03;;;13.10;88.70;;;;;;5016509;28;20052;-67
2021/05/11 05:55:46;;;;;;;8.68;2.80;;;13.10;88.70;;;;;;5034282;28;20034;-68
2021/05/11 05:58:12;;;;;;;10.25;2.97;;;13.10;88.70;;;;;;5036744;28;20529;-68
2021/05/11 06:00:38;;;;;;;6.32;2.67;;;13.00;88.60;;;;;;5036234;28;20037;-73
2021/05/11 06:03:17;;;;;;;9.07;3.10;;;13.00;88.70;;;;;;5034949;28;20448;-68
2021/05/11 06:05:43;;;;;;;9.35;2.70;;;13.00;88.80;;;;;;5036198;28;20072;-68
2021/05/11 06:08:08;;;;;;;8.52;2.80;;;13.00;88.70;;;;;;5038837;28;20033;-68
2021/05/11 06:10:34;;;;;;;8.05;2.70;;;13.00;89.00;;;;;;5035987;28;20071;-67
2021/05/11 06:13:11;;;;;;;5.95;2.25;;;13.00;89.20;;;;;;5034718;28;20034;-70
2021/05/11 06:18:21;;;;;;;6.90;2.58;;;13.00;88.90;;;;;;5034447;28;20448;-71
2021/05/11 06:20:47;;;;;;;9.52;2.67;;;13.00;89.10;;;;;;5034440;28;20087;-68
2021/05/11 06:23:13;;;;;;;6.10;2.50;;;13.00;89.00;;;;;;5032790;28;20531;-68
2021/05/11 06:25:43;;;;;;;7.28;2.83;;;13.00;89.10;;;;;;5033720;28;20042;-68
2021/05/11 06:28:09;;;;;;;7.47;2.83;;;13.10;89.10;;;;;;5033844;28;20069;-68
2021/05/11 06:30:35;;;;;;;6.32;2.30;;;13.00;89.00;;;;;;5033664;28;20042;-68
2021/05/11 06:33:00;;;;;;;6.10;2.50;;;13.10;89.10;;;;;;5033232;28;20052;-68
2021/05/11 06:35:28;;;;;;;5.50;2.10;;;13.10;89.20;;;;;;5033125;28;20045;-68
2021/05/11 06:37:58;;;;;;;8.07;2.30;;;13.00;89.10;;;;;;5033654;28;20128;-68
2021/05/11 06:40:24;;;;;;;8.55;2.60;;;13.10;89.10;;;;;;5033072;28;20045;-68
2021/05/11 06:42:50;;;;;;;7.95;2.70;;;13.00;89.10;;;;;;5032234;28;20034;-68
2021/05/11 06:48:04;;;;;;;8.98;2.55;;;13.00;88.80;;;;;;5033083;28;20049;-67
2021/05/11 06:53:21;;;;;;;8.32;2.75;;;13.00;89.10;;;;;;5008565;28;20040;-68
2021/05/11 06:55:47;;;;;;;10.68;3.28;;;13.00;89.10;;;;;;5033162;28;20398;-67
2021/05/11 06:58:13;;;;;;;8.90;2.90;;;13.00;89.10;;;;;;5033071;28;20061;-67
2021/05/11 07:00:44;;;;;;;8.10;2.42;;;13.00;89.00;;;;;;5032837;28;20422;-68
2021/05/11 07:03:10;;;;;;;8.20;2.25;;;13.00;89.10;;;;;;5032434;28;20493;-67
2021/05/11 07:05:36;;;;;;;10.20;3.00;;;13.00;89.00;;;;;;5032455;28;20049;-68
2021/05/11 07:08:11;;;;;;;9.48;3.03;;;13.00;89.10;;;;;;5033083;28;20034;-67
2021/05/11 07:10:38;;;;;;;6.80;2.30;;;13.00;89.10;;;;;;5031450;28;20041;-67
2021/05/11 07:13:10;;;;;;;7.50;2.53;;;13.00;89.10;;;;;;5032466;28;20037;-67
2021/05/11 07:15:39;;;;;;;7.18;2.60;;;13.00;89.30;;;;;;5032642;28;20117;-68
2021/05/11 07:18:10;;;;;;;9.55;2.97;;;13.00;89.40;;;;;;5032361;28;20038;-67
2021/05/11 07:20:37;;;;;;;7.15;2.58;;;13.00;89.20;;;;;;5032768;28;20053;-68
2021/05/11 07:23:03;;;;;;;8.52;2.00;;;13.00;89.10;;;;;;5031588;28;20030;-68
2021/05/11 07:25:35;;;;;;;8.38;1.88;;;13.00;89.00;;;;;;5032415;28;20041;-68
2021/05/11 07:28:22;;;;;;;6.80;1.98;;;13.00;89.10;;;;;;5032350;28;20042;-68
2021/05/11 07:30:46;;;;;;;7.68;1.80;;;13.00;89.00;;;;;;5031951;28;20041;-67
2021/05/11 07:33:13;;;;;;;7.40;1.98;;;12.90;88.90;;;;;;5030056;28;20053;-68
2021/05/11 07:35:40;;;;;;;6.55;1.98;;;12.90;88.90;;;;;;5014446;28;20045;-67
2021/05/11 07:38:07;;;;;;;10.07;2.53;;;12.90;88.80;;;;;;5031887;28;20132;-67
2021/05/11 07:40:32;;;;;;;5.75;1.80;;;12.90;88.70;;;;;;5032232;28;20045;-67
2021/05/11 07:42:58;;;;;;;7.53;1.70;;;12.90;88.70;;;;;;5031716;28;20045;-68
2021/05/11 07:46:06;;;;;;;7.13;1.65;;;12.90;88.90;;;;;;5030363;28;20045;-68
2021/05/11 08:15:34;;;;;;;7.65;1.52;;;13.00;88.20;;;;;;5031280;28;20120;-67
2021/05/11 08:28:14;;;;;;;6.68;1.55;;;13.00;87.50;;;;;;5029136;28;20449;-68
2021/05/11 08:30:40;;;;;;;6.63;1.60;;;13.00;88.00;;;;;;5028509;28;20033;-68
2021/05/11 08:33:06;;;;;;;7.88;1.55;;;12.90;88.20;;;;;;5030531;28;20128;-68
2021/05/11 08:35:32;;;;;;;5.82;1.70;;;13.00;88.30;;;;;;5028846;28;20037;-70
2021/05/11 08:37:58;;;;;;;6.35;1.50;;;13.00;88.50;;;;;;5028124;28;20037;-68
2021/05/11 08:40:25;;;;;;;7.05;1.80;;;13.10;88.70;;;;;;5030344;28;20116;-67
2021/05/11 08:42:50;;;;;;;6.43;1.80;;;13.30;89.50;;;;;;5031190;28;20037;-68
2021/05/11 08:45:17;;;;;;;5.00;1.30;;;13.50;89.40;;;;;;5030235;28;20041;-68
2021/05/11 08:47:49;;;;;;;5.05;1.40;;;13.80;89.30;;;;;;5030823;28;20039;-67
2021/05/11 08:50:35;;;;;;;6.78;1.60;;;14.10;89.00;;;;;;5031071;28;20033;-68
2021/05/11 09:57:13;;;;;;;5.03;1.30;;;14.60;84.00;;;;;;5032922;28;20038;-68
2021/05/11 10:36:55;;;;;;;4.93;1.63;;;15.60;80.20;;;;;;5033132;28;20053;-69
2021/05/11 10:39:39;;;;;;;5.55;1.30;;;15.70;80.70;;;;;;5032221;28;20125;-69
2021/05/11 10:42:21;;;;;;;4.95;1.30;;;16.00;81.10;;;;;;5032003;28;20494;-69
2021/05/11 10:48:21;;;;;;;5.97;1.50;;;16.30;79.80;;;;;;5033121;28;20500;-69
2021/05/11 10:51:01;;;;;;;4.72;1.40;;;16.40;79.50;;;;;;5033053;28;20373;-67
2021/05/11 10:53:46;;;;;;;6.32;1.35;;;16.50;79.20;;;;;;5032354;28;20043;-67
2021/05/11 10:56:44;;;;;;;5.40;1.40;;;16.60;78.50;;;;;;5032990;28;20029;-66
2021/05/11 11:01:42;;;;;;;5.15;1.40;;;16.90;79.40;;;;;;5033211;28;20433;-67
2021/05/11 11:04:13;;;;;;;5.40;1.08;;;17.50;80.20;;;;;;5032300;28;20033;-67
2021/05/11 11:07:01;;;;;;;5.05;1.30;;;18.20;79.70;;;;;;5030423;28;20033;-66
2021/05/11 11:09:32;;;;;;;4.28;1.20;;;18.80;78.40;;;;;;5032540;28;20466;-67
2021/05/11 11:11:59;;;;;;;4.75;1.20;;;20.20;78.40;;;;;;5031586;28;20497;-68
2021/05/11 11:14:26;;;;;;;4.57;1.02;;;22.60;77.20;;;;;;5031896;28;20121;-67
2021/05/11 11:17:03;;;;;;;3.10;0.90;;;24.60;73.40;;;;;;5031285;28;20547;-67
2021/05/11 11:19:29;;;;;;;5.43;1.10;;;25.50;67.80;;;;;;5032204;28;20037;-67
2021/05/11 11:24:25;;;;;;;3.08;1.00;;;26.40;62.00;;;;;;5030246;28;20033;-68
2021/05/11 11:26:52;;;;;;;5.35;1.08;;;26.40;58.20;;;;;;5032280;28;20467;-68
2021/05/11 11:29:21;;;;;;;4.22;1.00;;;26.10;56.60;;;;;;5030971;28;20044;-68
2021/05/11 11:31:48;;;;;;;4.05;0.90;;;25.60;54.40;;;;;;5031217;28;20444;-68
2021/05/11 11:34:15;;;;;;;3.13;0.82;;;24.90;53.80;;;;;;5031805;28;20052;-67
2021/05/11 11:36:44;;;;;;;5.25;1.10;;;24.60;54.50;;;;;;5030400;28;20403;-67
2021/05/11 11:39:17;;;;;;;3.80;0.98;;;24.50;54.50;;;;;;5032353;28;20041;-68
2021/05/11 11:41:43;;;;;;;5.63;1.10;;;24.60;54.20;;;;;;5031882;28;20034;-68
2021/05/11 11:44:11;;;;;;;4.75;0.90;;;24.30;53.00;;;;;;5031691;28;20444;-67
2021/05/11 11:46:37;;;;;;;3.22;0.80;;;23.90;52.20;;;;;;5032010;28;20389;-67
2021/05/11 11:49:09;;;;;;;4.55;1.08;;;23.10;51.40;;;;;;5030464;28;20033;-67
2021/05/11 11:51:36;;;;;;;3.80;1.20;;;22.20;52.40;;;;;;5031941;28;20030;-68
2021/05/11 11:54:16;;;;;;;5.32;1.10;;;21.50;53.00;;;;;;5031179;28;20512;-67
2021/05/11 11:59:28;;;;;;;4.97;1.13;;;19.80;53.90;;;;;;5000588;28;20116;-67
2021/05/11 12:02:02;;;;;;;5.78;1.02;;;19.10;55.20;;;;;;5031649;28;20065;-67
2021/05/11 12:04:29;;;;;;;4.88;1.08;;;18.80;56.80;;;;;;5030908;28;20504;-66
2021/05/11 12:07:02;;;;;;;4.72;1.08;;;18.80;57.90;;;;;;5031690;28;20084;-67
2021/05/11 12:09:27;;;;;;;3.25;0.80;;;18.90;58.20;;;;;;5031165;28;20480;-66
2021/05/11 12:11:54;;;;;;;4.53;1.05;;;19.10;58.10;;;;;;5031675;28;20148;-66
2021/05/11 12:14:20;;;;;;;4.57;1.00;;;19.30;58.40;;;;;;5029440;28;20029;-66
2021/05/11 12:16:47;;;;;;;3.72;1.02;;;19.50;58.10;;;;;;5031450;28;20107;-66
2021/05/11 12:19:19;;;;;;;3.25;0.90;;;19.60;57.90;;;;;;5031393;28;20319;-67
2021/05/11 12:21:54;;;;;;;3.30;1.00;;;19.60;57.00;;;;;;5031168;28;20088;-66
2021/05/11 12:24:23;;;;;;;2.53;0.90;;;19.50;56.60;;;;;;5030869;28;20033;-67
2021/05/11 12:26:49;;;;;;;2.95;0.90;;;19.30;57.00;;;;;;5030242;28;20044;-67
2021/05/11 12:29:17;;;;;;;3.90;1.10;;;19.10;56.70;;;;;;5030113;28;20025;-66
2021/05/11 12:31:45;;;;;;;2.85;0.93;;;18.90;56.80;;;;;;5029673;28;20120;-66
2021/05/11 12:34:20;;;;;;;4.85;1.05;;;18.70;57.30;;;;;;5030533;28;20494;-67
2021/05/11 12:36:51;;;;;;;3.90;1.20;;;18.60;57.80;;;;;;5031123;28;20065;-66
2021/05/11 12:42:13;;;;;;;4.15;1.20;;;18.30;57.30;;;;;;5030888;28;20080;-66
2021/05/11 12:44:39;;;;;;;3.60;1.10;;;18.10;58.10;;;;;;5029218;28;20043;-66
2021/05/11 12:47:06;;;;;;;4.38;1.00;;;18.00;58.40;;;;;;5029619;28;20033;-66
2021/05/11 12:49:32;;;;;;;5.47;1.40;;;17.90;58.60;;;;;;5029589;28;20059;-66
2021/05/11 12:51:59;;;;;;;4.70;1.33;;;17.80;58.60;;;;;;5031118;28;20478;-66
2021/05/11 12:54:49;;;;;;;3.20;1.08;;;17.70;58.80;;;;;;5030041;28;20056;-66
2021/05/11 12:57:42;;;;;;;3.05;1.00;;;17.60;59.10;;;;;;5030830;28;20037;-65
2021/05/11 13:25:11;;;;;;;3.38;1.10;;;17.60;60.20;;;;;;5001401;28;20053;-67
2021/05/11 13:33:08;;;;;;;4.70;1.20;;;17.60;60.70;;;;;;5032766;28;20116;-66
2021/05/11 13:35:35;;;;;;;4.25;1.30;;;17.50;60.60;;;;;;5033484;28;20513;-66
2021/05/11 13:38:02;;;;;;;4.40;1.20;;;17.40;61.20;;;;;;5034025;28;20065;-67
2021/05/11 13:40:27;;;;;;;5.78;1.30;;;17.40;61.70;;;;;;5033251;28;20045;-67
2021/05/11 13:42:53;;;;;;;6.03;1.60;;;17.40;61.80;;;;;;5034214;28;20033;-66
2021/05/11 13:45:19;;;;;;;5.97;1.50;;;17.40;62.10;;;;;;5016041;28;20057;-67
2021/05/11 13:47:57;;;;;;;6.00;1.50;;;17.40;62.40;;;;;;5034303;28;20103;-67
2021/05/11 13:50:32;;;;;;;4.47;1.20;;;17.30;62.20;;;;;;5032912;28;20045;-67
2021/05/11 13:52:58;;;;;;;5.68;1.40;;;17.30;62.60;;;;;;5032650;28;20033;-66
2021/05/11 13:55:33;;;;;;;4.93;1.30;;;17.30;62.80;;;;;;5033664;28;20394;-67
2021/05/11 14:03:27;;;;;;;6.13;1.50;;;17.30;63.70;;;;;;5033643;28;20135;-67
2021/05/11 14:05:53;;;;;;;4.22;1.40;;;17.40;64.10;;;;;;5033687;28;20029;-66
2021/05/11 14:08:19;;;;;;;6.00;1.70;;;17.50;64.40;;;;;;5034016;28;20041;-66
2021/05/11 14:10:45;;;;;;;4.03;1.40;;;17.70;64.20;;;;;;5033643;28;20041;-68
2021/05/11 14:13:11;;;;;;;4.20;1.30;;;17.70;63.80;;;;;;5033399;28;20060;-66
2021/05/11 14:15:36;;;;;;;4.63;1.38;;;17.70;63.80;;;;;;5033993;28;20045;-68
2021/05/11 14:18:02;;;;;;;5.43;1.73;;;17.60;63.90;;;;;;5033140;28;20070;-66
2021/05/11 14:20:30;;;;;;;3.65;1.27;;;17.60;63.90;;;;;;5033490;28;20498;-68
2021/05/11 14:22:56;;;;;;;8.38;1.52;;;17.60;64.20;;;;;;5032908;28;20486;-67
2021/05/11 14:25:22;;;;;;;5.22;1.48;;;17.70;64.40;;;;;;5032340;28;20034;-67
2021/05/11 14:27:47;;;;;;;5.32;1.60;;;17.70;64.30;;;;;;5032468;28;20041;-68
2021/05/11 14:30:14;;;;;;;7.63;1.45;;;17.90;64.50;;;;;;5033039;28;20080;-67
2021/05/11 14:32:40;;;;;;;8.27;1.50;;;18.00;64.20;;;;;;5033645;28;20030;-67
2021/05/11 14:35:06;;;;;;;6.28;1.60;;;18.00;64.10;;;;;;5031600;28;20513;-68
2021/05/11 14:37:32;;;;;;;3.83;1.10;;;18.00;64.10;;;;;;5033078;28;20045;-68
2021/05/11 14:39:58;;;;;;;6.53;2.53;;;18.00;64.00;;;;;;5032635;28;20045;-67
2021/05/11 14:42:23;;;;;;;12.07;6.80;;;18.00;64.40;;;;;;5032972;28;20172;-68
2021/05/11 14:44:52;;;;;;;7.82;2.80;;;18.00;64.20;;;;;;5032867;28;20068;-66
2021/05/11 14:47:18;;;;;;;4.65;1.40;;;18.00;64.30;;;;;;5031998;28;20402;-67
2021/05/11 14:49:44;;;;;;;5.45;1.45;;;18.00;64.30;;;;;;5031483;28;20037;-67
2021/05/11 14:52:12;;;;;;;5.88;1.42;;;18.00;64.30;;;;;;5033266;28;20489;-67
2021/05/11 14:54:39;;;;;;;4.47;1.33;;;18.00;64.20;;;;;;5032057;28;20044;-66
2021/05/11 14:57:05;;;;;;;6.85;1.40;;;18.00;64.10;;;;;;5032905;28;20458;-67
2021/05/11 14:59:30;;;;;;;4.75;1.33;;;18.00;64.30;;;;;;5033003;28;20053;-68
2021/05/11 15:01:56;;;;;;;6.50;1.58;;;18.10;64.50;;;;;;5032615;28;20559;-67
2021/05/11 15:04:22;;;;;;;4.72;1.23;;;18.10;64.60;;;;;;5030929;28;20112;-68
2021/05/11 15:06:47;;;;;;;4.78;1.30;;;18.20;64.50;;;;;;5032495;28;20045;-67
2021/05/11 15:09:13;;;;;;;4.07;1.20;;;18.30;64.70;;;;;;5015222;28;20248;-67
2021/05/11 15:11:39;;;;;;;5.53;1.50;;;18.30;64.40;;;;;;5031669;28;20398;-66
2021/05/11 15:14:05;;;;;;;6.32;1.30;;;18.30;64.00;;;;;;5031797;28;20064;-66
2021/05/11 15:16:39;;;;;;;5.25;1.30;;;18.30;64.10;;;;;;5031442;28;20041;-67
2021/05/11 15:19:06;;;;;;;6.38;1.45;;;18.20;63.90;;;;;;5030895;28;20048;-66
2021/05/11 15:21:33;;;;;;;4.10;1.30;;;18.10;63.60;;;;;;5032702;28;20040;-67
2021/05/11 15:23:59;;;;;;;4.60;1.20;;;18.00;63.80;;;;;;5031811;28;20041;-67
2021/05/11 15:26:30;;;;;;;4.65;1.20;;;17.80;64.20;;;;;;5031904;28;20068;-67
2021/05/11 15:28:56;;;;;;;4.40;1.40;;;17.80;64.20;;;;;;5032228;28;20449;-67
2021/05/11 15:31:23;;;;;;;6.20;1.40;;;17.70;64.30;;;;;;5031728;28;20099;-67
2021/05/11 15:33:49;;;;;;;6.47;1.60;;;17.70;64.20;;;;;;5031892;28;20049;-67
2021/05/11 15:36:14;;;;;;;4.13;1.30;;;17.70;64.30;;;;;;5031046;28;20034;-67
2021/05/11 15:38:40;;;;;;;5.15;1.20;;;17.60;64.40;;;;;;5031339;28;20038;-67
2021/05/11 15:41:06;;;;;;;4.07;1.27;;;17.60;64.80;;;;;;5032356;28;20041;-67
2021/05/11 15:43:32;;;;;;;3.55;1.00;;;17.60;65.10;;;;;;5031867;28;20034;-67
2021/05/11 15:45:58;;;;;;;4.72;1.30;;;17.60;65.20;;;;;;5031626;28;20144;-67
2021/05/11 15:48:24;;;;;;;4.53;1.10;;;17.70;65.20;;;;;;5032211;28;20037;-67
2021/05/11 15:50:53;;;;;;;6.03;1.48;;;17.70;65.20;;;;;;5031735;28;20060;-67
2021/05/11 15:53:19;;;;;;;5.45;1.35;;;17.60;65.30;;;;;;5029694;28;20512;-67
2021/05/11 15:55:49;;;;;;;5.72;1.35;;;17.50;65.40;;;;;;5031956;28;20406;-67
2021/05/11 15:58:19;;;;;;;4.78;1.25;;;17.50;65.70;;;;;;5031468;28;20095;-67
2021/05/11 16:00:50;;;;;;;5.18;1.15;;;17.40;65.90;;;;;;5031834;28;20041;-67
2021/05/11 16:03:17;;;;;;;5.45;1.70;;;17.30;66.40;;;;;;5029753;28;20041;-66
2021/05/11 16:05:43;;;;;;;4.93;1.27;;;17.30;66.60;;;;;;5030516;28;20121;-67
2021/05/11 16:08:11;;;;;;;4.13;1.23;;;17.30;66.70;;;;;;5031394;28;20121;-67
2021/05/11 16:10:38;;;;;;;4.43;1.10;;;17.20;66.80;;;;;;5031767;28;20035;-67
2021/05/11 16:13:05;;;;;;;6.00;1.30;;;17.30;66.90;;;;;;5029344;28;20045;-67
2021/05/11 16:15:31;;;;;;;5.43;1.20;;;17.30;66.70;;;;;;5031177;28;20461;-66
2021/05/11 16:17:57;;;;;;;4.57;1.17;;;17.30;66.70;;;;;;5030251;28;20065;-66
2021/05/11 16:20:24;;;;;;;5.18;1.30;;;17.20;66.60;;;;;;5031149;28;20107;-65
2021/05/11 16:22:50;;;;;;;6.20;1.27;;;17.20;66.70;;;;;;5029869;28;20045;-66
2021/05/11 16:25:16;;;;;;;4.20;1.10;;;17.20;66.90;;;;;;5031222;28;20124;-65
2021/05/11 16:27:42;;;;;;;4.95;1.30;;;17.20;67.10;;;;;;5029507;28;20063;-65
2021/05/11 16:30:11;;;;;;;4.10;1.40;;;17.20;67.10;;;;;;5031582;28;20038;-67
2021/05/11 16:32:37;;;;;;;5.03;1.40;;;17.10;67.00;;;;;;5029925;28;20033;-66
2021/05/11 16:35:05;;;;;;;5.28;1.40;;;17.00;67.10;;;;;;5029361;28;20529;-66
2021/05/11 16:37:30;;;;;;;4.53;1.30;;;17.00;67.20;;;;;;5029922;28;20037;-66
2021/05/11 16:39:56;;;;;;;5.63;1.48;;;16.90;67.10;;;;;;5029733;28;20128;-66
2021/05/11 16:42:22;;;;;;;4.85;1.20;;;16.80;67.40;;;;;;5031180;28;20406;-66
2021/05/11 16:44:47;;;;;;;4.43;1.10;;;16.70;67.60;;;;;;5029397;28;20104;-69
2021/05/11 16:47:13;;;;;;;4.57;1.20;;;16.60;68.00;;;;;;5030651;28;20424;-68
2021/05/11 16:49:38;;;;;;;5.85;1.70;;;16.50;68.40;;;;;;5031178;28;20037;-69
2021/05/11 16:52:04;;;;;;;5.80;1.67;;;16.40;68.60;;;;;;5030845;28;20406;-68
2021/05/11 16:54:30;;;;;;;5.25;1.30;;;16.30;68.70;;;;;;5030646;28;20048;-68
2021/05/11 16:56:56;;;;;;;3.88;1.15;;;16.20;68.90;;;;;;5030850;28;20284;-68
2021/05/11 16:59:21;;;;;;;5.47;1.05;;;16.20;69.10;;;;;;5030835;28;20041;-69
2021/05/11 17:01:47;;;;;;;4.75;1.20;;;16.10;69.30;;;;;;5029941;28;20048;-69
2021/05/11 17:04:13;;;;;;;5.47;1.17;;;16.10;69.40;;;;;;5028058;28;20041;-68